Main page
METAR-TAF:

METAR-TAF

Airports :

Kithira Island National Airport

Kythira, Greece

latitude: 36-17-21N, longitude: 023-01-24E, elevation: 321 m

Current weather observation

The report was made 17 hours and 56 minutes ago, at 16:50 UTC
Temperature 9°C
Humidity 93%
Pressure 1020 hPa
Visibility 10 km or more
Few clouds at a height of 1000 ft
Scattered clouds at a height of 2000 ft

METAR: LGKC 181650Z /////KT 9999 FEW010 SCT020 09/08 Q1020

Time: 12:46 (10:46 UTC)

Forecast

The report was made 2 hours and 46 minutes ago, at 08:00 UTC
Forecast valid from 19 at 09 UTC to 19 at 18 UTC
Wind 14 kt from the South
Visibility 10 km or more
Scattered clouds at a height of 1000 ft
Broken clouds at a height of 2000 ft

TAF: LGKC 190800Z 1909/1918 19014KT 9999 SCT010 BKN020

Weather observations and forecasts of more than 4000 airports (METAR and TAF reports).

The available stations are represented by yellow and red dots on the map.

Hover mouse over dot to see the name of the station.

Then click to see weather observations and forecasts.

To change the map : click on the green buttons with a black cross to zoom in, on the green button with a dash to zoom out, or on the green arrows for adjacent maps.


METAR-TAF: